createdAt,value
2018-02-21T00:00:42.712Z,47.10
2018-02-21T00:01:42.792Z,48.20
2018-02-21T00:02:42.741Z,47.20
2018-02-21T00:03:42.782Z,47.90
2018-02-21T00:04:42.719Z,48.90
2018-02-21T00:05:42.805Z,48.60
2018-02-21T00:06:42.720Z,47.60
2018-02-21T00:07:42.817Z,47.00
2018-02-21T00:08:42.731Z,47.20
2018-02-21T00:09:42.858Z,47.10
2018-02-21T00:10:42.726Z,48.60
2018-02-21T00:11:42.838Z,48.60
2018-02-21T00:12:42.729Z,48.10
2018-02-21T00:13:42.749Z,47.30
2018-02-21T00:14:42.740Z,47.10
2018-02-21T00:15:42.764Z,47.70
2018-02-21T00:16:42.744Z,47.80
2018-02-21T00:17:42.775Z,47.60
2018-02-21T00:18:42.742Z,47.90
2018-02-21T00:19:42.786Z,48.00
2018-02-21T00:20:42.749Z,47.10
2018-02-21T00:21:42.800Z,48.60
2018-02-21T00:22:42.759Z,48.40
2018-02-21T00:23:42.815Z,49.90
2018-02-21T00:24:42.752Z,47.50
2018-02-21T00:25:42.825Z,48.20
2018-02-21T00:26:42.767Z,47.30
2018-02-21T00:27:42.840Z,48.30
2018-02-21T00:28:42.766Z,47.30
2018-02-21T00:29:42.866Z,48.10
2018-02-21T00:30:42.799Z,48.00
2018-02-21T00:31:42.874Z,46.80
2018-02-21T00:32:42.774Z,48.50
2018-02-21T00:33:42.878Z,47.10
2018-02-21T00:34:42.770Z,48.20
2018-02-21T00:35:42.785Z,48.60
2018-02-21T00:36:42.768Z,46.90
2018-02-21T00:37:42.803Z,48.70
2018-02-21T00:38:42.781Z,47.90
2018-02-21T00:39:42.815Z,47.00
2018-02-21T00:40:42.777Z,48.30
2018-02-21T00:41:42.828Z,48.70
2018-02-21T00:42:42.776Z,49.80
2018-02-21T00:43:42.842Z,49.90
2018-02-21T00:44:42.797Z,49.30
2018-02-21T00:45:42.853Z,50.50
2018-02-21T00:46:42.785Z,50.50
2018-02-21T00:47:42.863Z,49.80
2018-02-21T00:48:42.791Z,48.90
2018-02-21T00:49:42.883Z,48.20
2018-02-21T00:50:42.794Z,49.70
2018-02-21T00:51:42.910Z,49.80
2018-02-21T00:52:42.801Z,49.20
2018-02-21T00:53:42.914Z,49.10
2018-02-21T00:54:42.803Z,49.80
2018-02-21T00:55:42.818Z,49.50
2018-02-21T00:56:42.807Z,47.60
2018-02-21T00:57:42.827Z,49.60
2018-02-21T00:58:42.813Z,49.70
2018-02-21T00:59:42.841Z,47.20
2018-02-21T01:00:42.817Z,47.30
2018-02-21T01:01:42.875Z,47.00
2018-02-21T01:02:42.814Z,49.60
2018-02-21T01:03:42.878Z,48.30
2018-02-21T01:04:42.814Z,50.50
2018-02-21T01:05:42.880Z,50.20
2018-02-21T01:06:42.828Z,50.70
2018-02-21T01:07:42.896Z,50.10
2018-02-21T01:08:42.827Z,49.70
2018-02-21T01:09:42.905Z,51.50
2018-02-21T01:10:42.824Z,50.70
2018-02-21T01:11:42.924Z,50.20
2018-02-21T01:12:42.831Z,50.40
2018-02-21T01:13:42.937Z,49.80
2018-02-21T01:14:42.832Z,50.70
2018-02-21T01:15:42.945Z,49.60
2018-02-21T01:16:42.836Z,51.30
2018-02-21T01:17:42.855Z,49.10
2018-02-21T01:18:42.841Z,48.00
2018-02-21T01:19:42.872Z,50.70
2018-02-21T01:20:42.853Z,51.20
2018-02-21T01:21:43.906Z,51.30
2018-02-21T01:22:42.876Z,48.10
2018-02-21T01:23:42.897Z,48.50
2018-02-21T01:24:42.842Z,48.60
2018-02-21T01:25:42.908Z,49.50
2018-02-21T01:26:42.867Z,49.10
2018-02-21T01:27:43.945Z,51.00
2018-02-21T01:28:42.857Z,50.90
2018-02-21T01:29:42.928Z,48.90
2018-02-21T01:30:42.858Z,49.30
2018-02-21T01:31:42.949Z,49.80
2018-02-21T01:32:42.858Z,52.90
2018-02-21T01:33:42.958Z,51.00
2018-02-21T01:34:42.859Z,50.80
2018-02-21T01:35:42.969Z,49.70
2018-02-21T01:36:42.867Z,51.40
2018-02-21T01:37:42.892Z,52.20
2018-02-21T01:38:42.877Z,50.20
2018-02-21T01:39:42.891Z,50.30
2018-02-21T01:40:42.870Z,51.60
2018-02-21T01:41:42.950Z,47.60
2018-02-21T01:42:42.867Z,51.00
2018-02-21T01:43:42.931Z,49.20
2018-02-21T01:44:42.874Z,49.00
2018-02-21T01:45:43.963Z,49.90
2018-02-21T01:46:42.878Z,49.90
2018-02-21T01:47:42.950Z,51.00
2018-02-21T01:48:42.881Z,51.60
2018-02-21T01:49:42.961Z,52.10
2018-02-21T01:50:42.897Z,53.00
2018-02-21T01:51:42.965Z,53.50
2018-02-21T01:52:42.885Z,52.70
2018-02-21T01:53:42.986Z,51.30
2018-02-21T01:54:42.886Z,53.60
2018-02-21T01:55:42.992Z,52.50
2018-02-21T01:56:42.887Z,51.20
2018-02-21T01:57:43.006Z,52.30
2018-02-21T01:58:42.890Z,51.90
2018-02-21T01:59:42.920Z,49.70
2018-02-21T02:00:42.901Z,51.40
2018-02-21T02:01:42.933Z,52.50
2018-02-21T02:02:42.910Z,50.90
2018-02-21T02:03:42.947Z,50.00
2018-02-21T02:04:42.913Z,51.70
2018-02-21T02:05:42.954Z,51.90
2018-02-21T02:06:42.918Z,52.30
2018-02-21T02:07:42.966Z,52.00
2018-02-21T02:08:42.910Z,51.10
2018-02-21T02:09:42.979Z,50.80
2018-02-21T02:10:42.912Z,51.10
2018-02-21T02:11:43.000Z,51.90
2018-02-21T02:12:42.913Z,50.80
2018-02-21T02:13:43.014Z,51.80
2018-02-21T02:14:42.919Z,50.90
2018-02-21T02:15:43.024Z,51.20
2018-02-21T02:16:42.922Z,49.90
2018-02-21T02:17:42.932Z,52.40
2018-02-21T02:18:42.943Z,54.00
2018-02-21T02:19:42.956Z,52.40
2018-02-21T02:20:42.925Z,51.70
2018-02-21T02:21:42.961Z,52.30
2018-02-21T02:22:42.926Z,52.20
2018-02-21T02:23:42.969Z,52.80
2018-02-21T02:24:42.929Z,51.80
2018-02-21T02:25:42.999Z,51.80
2018-02-21T02:26:42.943Z,51.80
2018-02-21T02:27:43.005Z,53.70
2018-02-21T02:28:42.934Z,51.80
2018-02-21T02:29:43.017Z,53.10
2018-02-21T02:30:42.938Z,53.50
2018-02-21T02:31:43.031Z,53.10
2018-02-21T02:32:42.944Z,52.30
2018-02-21T02:33:43.033Z,52.50
2018-02-21T02:34:42.950Z,51.90
2018-02-21T02:35:43.047Z,51.60
2018-02-21T02:36:42.944Z,53.50
2018-02-21T02:37:42.953Z,53.50
2018-02-21T02:38:42.945Z,53.70
2018-02-21T02:39:42.984Z,54.90
2018-02-21T02:40:42.945Z,55.20
2018-02-21T02:41:42.978Z,54.00
2018-02-21T02:42:42.958Z,52.40
2018-02-21T02:43:43.117Z,54.40
2018-02-21T02:44:42.958Z,55.90
2018-02-21T02:45:43.006Z,54.00
2018-02-21T02:46:42.955Z,55.80
2018-02-21T02:47:43.021Z,56.00
2018-02-21T02:48:42.965Z,55.30
2018-02-21T02:49:43.034Z,57.10
2018-02-21T02:50:42.964Z,57.20
2018-02-21T02:51:43.045Z,56.40
2018-02-21T02:52:42.967Z,56.20
2018-02-21T02:53:43.059Z,55.20
2018-02-21T02:54:42.969Z,57.10
2018-02-21T02:55:44.002Z,56.10
2018-02-21T02:56:42.971Z,56.90
2018-02-21T02:57:42.980Z,56.50
2018-02-21T02:58:42.967Z,56.90
2018-02-21T02:59:42.993Z,56.20
2018-02-21T03:00:42.974Z,55.40
2018-02-21T03:01:43.008Z,55.00
2018-02-21T03:02:42.973Z,55.70
2018-02-21T03:03:43.020Z,55.20
2018-02-21T03:04:42.977Z,57.60
2018-02-21T03:05:43.043Z,55.90
2018-02-21T03:06:42.986Z,55.60
2018-02-21T03:07:43.046Z,57.50
2018-02-21T03:08:42.998Z,56.60
2018-02-21T03:09:43.060Z,56.80
2018-02-21T03:10:42.986Z,57.90
2018-02-21T03:11:43.074Z,56.20
2018-02-21T03:12:42.985Z,57.80
2018-02-21T03:13:43.087Z,55.90
2018-02-21T03:14:42.988Z,57.00
2018-02-21T03:15:43.100Z,56.10
2018-02-21T03:16:42.994Z,54.80
2018-02-21T03:17:43.011Z,56.50
2018-02-21T03:18:42.991Z,55.00
2018-02-21T03:19:43.024Z,56.80
2018-02-21T03:20:42.996Z,55.80
2018-02-21T03:21:43.044Z,55.30
2018-02-21T03:22:42.997Z,55.40
2018-02-21T03:23:43.053Z,57.20
2018-02-21T03:24:43.003Z,58.10
2018-02-21T03:25:43.063Z,56.30
2018-02-21T03:26:43.000Z,56.50
2018-02-21T03:27:43.077Z,55.70
2018-02-21T03:28:43.001Z,55.70
2018-02-21T03:29:43.089Z,57.20
2018-02-21T03:30:43.010Z,56.00
2018-02-21T03:31:43.102Z,56.50
2018-02-21T03:32:43.007Z,56.20
2018-02-21T03:33:43.117Z,56.80
2018-02-21T03:34:43.019Z,56.50
2018-02-21T03:35:43.025Z,54.50
2018-02-21T03:36:43.013Z,56.80
2018-02-21T03:37:43.039Z,56.40
2018-02-21T03:38:43.014Z,54.50
2018-02-21T03:39:43.053Z,54.50
2018-02-21T03:40:43.016Z,53.30
2018-02-21T03:41:43.067Z,56.80
2018-02-21T03:42:43.018Z,55.90
2018-02-21T03:43:43.081Z,55.80
2018-02-21T03:44:43.021Z,56.40
2018-02-21T03:45:43.090Z,57.10
2018-02-21T03:46:43.027Z,56.10
2018-02-21T03:47:43.106Z,53.80
2018-02-21T03:48:43.027Z,55.10
2018-02-21T03:49:43.218Z,54.80
2018-02-21T03:50:43.022Z,54.50
2018-02-21T03:51:45.079Z,55.40
2018-02-21T03:52:43.030Z,53.00
2018-02-21T03:53:45.084Z,54.50
2018-02-21T03:54:43.033Z,54.80
2018-02-21T03:55:43.060Z,56.40
2018-02-21T03:56:43.031Z,55.50
2018-02-21T03:57:43.068Z,56.50
2018-02-21T03:58:43.032Z,55.60
2018-02-21T03:59:44.104Z,55.10
2018-02-21T04:00:43.035Z,54.40
2018-02-21T04:01:43.100Z,55.10
2018-02-21T04:02:43.047Z,53.70
2018-02-21T04:03:43.103Z,55.10
2018-02-21T04:04:43.034Z,53.80
2018-02-21T04:05:43.113Z,52.40
2018-02-21T04:06:43.047Z,53.70
2018-02-21T04:07:44.151Z,54.20
2018-02-21T04:08:43.039Z,52.90
2018-02-21T04:09:43.150Z,54.40
2018-02-21T04:10:43.048Z,52.40
2018-02-21T04:11:43.158Z,53.60
2018-02-21T04:12:43.051Z,53.80
2018-02-21T04:13:43.080Z,50.70
2018-02-21T04:14:43.046Z,52.40
2018-02-21T04:15:43.079Z,51.00
2018-02-21T04:16:43.052Z,53.00
2018-02-21T04:17:43.104Z,52.60
2018-02-21T04:18:43.053Z,51.90
2018-02-21T04:19:43.104Z,51.60
2018-02-21T04:20:43.060Z,52.00
2018-02-21T04:21:43.118Z,53.60
2018-02-21T04:22:43.077Z,52.30
2018-02-21T04:23:43.059Z,51.60
2018-02-21T04:24:43.056Z,52.50
2018-02-21T04:25:43.073Z,52.30
2018-02-21T04:26:43.159Z,52.30
2018-02-21T04:27:43.062Z,53.10
2018-02-21T04:28:43.166Z,51.70
2018-02-21T04:29:43.082Z,51.50
2018-02-21T04:30:43.177Z,52.40
2018-02-21T04:31:43.065Z,51.10
2018-02-21T04:32:43.085Z,50.10
2018-02-21T04:33:43.067Z,51.00
2018-02-21T04:34:43.114Z,51.60
2018-02-21T04:35:43.074Z,51.50
2018-02-21T04:36:43.112Z,50.20
2018-02-21T04:37:43.082Z,50.20
2018-02-21T04:38:43.135Z,50.40
2018-02-21T04:39:43.070Z,51.30
2018-02-21T04:40:43.138Z,50.50
2018-02-21T04:41:43.072Z,51.70
2018-02-21T04:42:43.151Z,50.50
2018-02-21T04:43:43.084Z,50.60
2018-02-21T04:44:43.165Z,51.00
2018-02-21T04:45:43.076Z,51.70
2018-02-21T04:46:43.188Z,50.70
2018-02-21T04:47:43.082Z,49.50
2018-02-21T04:48:43.194Z,48.70
2018-02-21T04:49:43.084Z,50.60
2018-02-21T04:50:43.192Z,47.90
2018-02-21T04:51:43.093Z,49.60
2018-02-21T04:52:43.106Z,49.80
2018-02-21T04:53:43.086Z,51.40
2018-02-21T04:54:44.143Z,49.50
2018-02-21T04:55:43.091Z,48.50
2018-02-21T04:56:43.164Z,50.30
2018-02-21T04:57:43.112Z,49.90
2018-02-21T04:58:43.164Z,50.50
2018-02-21T04:59:43.089Z,50.90
2018-02-21T05:00:43.181Z,51.30
2018-02-21T05:01:43.099Z,50.70
2018-02-21T05:02:43.195Z,49.80
2018-02-21T05:03:43.094Z,49.90
2018-02-21T05:04:43.199Z,49.20
2018-02-21T05:05:43.087Z,48.70
2018-02-21T05:06:43.213Z,49.00
2018-02-21T05:07:43.101Z,49.60
2018-02-21T05:08:43.108Z,51.30
2018-02-21T05:09:43.100Z,48.80
2018-02-21T05:10:43.117Z,49.90
2018-02-21T05:11:43.099Z,49.00
2018-02-21T05:12:43.161Z,47.90
2018-02-21T05:13:43.138Z,48.30
2018-02-21T05:14:43.149Z,48.90
2018-02-21T05:15:43.098Z,49.50
2018-02-21T05:16:48.892Z,48.70
2018-02-21T05:17:43.114Z,49.20
2018-02-21T05:18:43.171Z,50.30
2018-02-21T05:19:43.101Z,50.50
2018-02-21T05:20:43.180Z,50.70
2018-02-21T05:21:43.108Z,50.70
2018-02-21T05:22:43.197Z,49.30
2018-02-21T05:23:43.112Z,50.70
2018-02-21T05:24:43.209Z,49.20
2018-02-21T05:25:43.116Z,50.40
2018-02-21T05:26:43.127Z,50.30
2018-02-21T05:27:43.260Z,51.90
2018-02-21T05:28:43.136Z,50.00
2018-02-21T05:29:43.113Z,51.20
2018-02-21T05:30:43.146Z,50.80
2018-02-21T05:31:43.110Z,50.80
2018-02-21T05:32:43.159Z,52.10
2018-02-21T05:33:43.114Z,54.40
2018-02-21T05:34:43.170Z,52.30
2018-02-21T05:35:43.134Z,52.70
2018-02-21T05:36:43.187Z,52.70
2018-02-21T05:37:43.121Z,52.90
2018-02-21T05:38:43.200Z,52.80
2018-02-21T05:39:43.119Z,52.80
2018-02-21T05:40:43.220Z,51.20
2018-02-21T05:41:43.117Z,50.90
2018-02-21T05:42:43.224Z,52.30
2018-02-21T05:43:43.121Z,51.40
2018-02-21T05:44:43.232Z,52.30
2018-02-21T05:45:43.124Z,52.70
2018-02-21T05:46:43.248Z,55.90
2018-02-21T05:47:43.125Z,54.60
2018-02-21T05:48:43.166Z,52.80
2018-02-21T05:49:43.125Z,54.30
2018-02-21T05:50:43.173Z,53.20
2018-02-21T05:51:43.138Z,53.30
2018-02-21T05:52:43.185Z,52.20
2018-02-21T05:53:43.133Z,51.50
2018-02-21T05:54:43.202Z,49.70
2018-02-21T05:55:43.128Z,50.00
2018-02-21T05:56:43.261Z,51.30
2018-02-21T05:57:43.145Z,50.20
2018-02-21T05:58:43.233Z,49.40
2018-02-21T05:59:43.131Z,50.30
2018-02-21T06:00:44.157Z,49.70
2018-02-21T06:01:43.148Z,50.00
2018-02-21T06:02:43.151Z,49.40
2018-02-21T06:03:43.144Z,48.40
2018-02-21T06:04:43.166Z,49.10
2018-02-21T06:05:43.144Z,48.50
2018-02-21T06:06:44.206Z,49.60
2018-02-21T06:07:43.137Z,48.60
2018-02-21T06:08:43.189Z,49.00
2018-02-21T06:09:43.155Z,49.80
2018-02-21T06:10:43.203Z,50.20
2018-02-21T06:11:43.156Z,49.50
2018-02-21T06:12:43.212Z,50.60
2018-02-21T06:13:43.145Z,49.30
2018-02-21T06:14:43.224Z,49.30
2018-02-21T06:15:43.150Z,50.80
2018-02-21T06:16:43.243Z,50.70
2018-02-21T06:17:43.146Z,50.00
2018-02-21T06:18:43.253Z,50.00
2018-02-21T06:19:43.149Z,51.70
2018-02-21T06:20:43.268Z,52.00
2018-02-21T06:21:43.155Z,50.40
2018-02-21T06:22:43.173Z,50.30
2018-02-21T06:23:43.154Z,50.50
2018-02-21T06:24:43.184Z,52.80
2018-02-21T06:25:43.150Z,50.80
2018-02-21T06:26:43.153Z,51.10
2018-02-21T06:27:43.149Z,49.80
2018-02-21T06:28:43.237Z,49.50
2018-02-21T06:29:43.151Z,49.60
2018-02-21T06:30:43.225Z,50.60
2018-02-21T06:31:43.153Z,50.40
2018-02-21T06:32:43.236Z,50.60
2018-02-21T06:33:43.160Z,51.50
2018-02-21T06:34:43.250Z,51.60
2018-02-21T06:35:43.157Z,50.00
2018-02-21T06:36:44.190Z,51.30
2018-02-21T06:37:43.157Z,50.20
2018-02-21T06:38:43.180Z,50.50
2018-02-21T06:39:43.164Z,49.10
2018-02-21T06:40:43.191Z,50.30
2018-02-21T06:41:43.169Z,48.80
2018-02-21T06:42:43.292Z,50.90
2018-02-21T06:43:43.161Z,49.00
2018-02-21T06:44:43.336Z,49.20
2018-02-21T06:45:43.156Z,49.70
2018-02-21T06:46:43.231Z,47.90
2018-02-21T06:47:43.164Z,47.50
2018-02-21T06:48:43.308Z,45.70
2018-02-21T06:49:43.165Z,48.90
2018-02-21T06:50:43.250Z,49.40
2018-02-21T06:51:43.178Z,48.20
2018-02-21T06:52:43.271Z,49.10
2018-02-21T06:53:43.168Z,48.10
2018-02-21T06:54:44.201Z,48.90
2018-02-21T06:55:43.188Z,47.60
2018-02-21T06:56:43.191Z,47.20
2018-02-21T06:57:43.170Z,46.40
2018-02-21T06:58:43.197Z,48.00
2018-02-21T06:59:43.204Z,46.30
2018-02-21T07:00:43.210Z,48.50
2018-02-21T07:01:43.168Z,46.90
2018-02-21T07:02:43.223Z,47.60
2018-02-21T07:03:43.181Z,45.20
2018-02-21T07:04:43.242Z,47.30
2018-02-21T07:05:43.173Z,46.10
2018-02-21T07:06:43.259Z,45.80
2018-02-21T07:07:43.177Z,47.50
2018-02-21T07:08:43.266Z,46.60
2018-02-21T07:09:43.173Z,46.70
2018-02-21T07:10:44.202Z,47.00
2018-02-21T07:11:43.178Z,48.10
2018-02-21T07:12:43.316Z,46.60
2018-02-21T07:13:43.174Z,48.00
2018-02-21T07:14:43.208Z,47.60
2018-02-21T07:15:43.175Z,49.20
2018-02-21T07:16:43.216Z,49.50
2018-02-21T07:17:43.174Z,48.60
2018-02-21T07:18:43.229Z,49.30
2018-02-21T07:19:43.179Z,48.40
2018-02-21T07:20:43.237Z,47.70
2018-02-21T07:21:43.176Z,47.80
2018-02-21T07:22:43.253Z,47.00
2018-02-21T07:23:43.186Z,47.50
2018-02-21T07:24:43.262Z,47.40
2018-02-21T07:25:43.182Z,46.40
2018-02-21T07:26:43.185Z,47.60
2018-02-21T07:27:43.188Z,45.60
2018-02-21T07:28:43.277Z,48.20
2018-02-21T07:29:43.195Z,46.20
2018-02-21T07:30:43.300Z,44.80
2018-02-21T07:31:43.188Z,46.50
2018-02-21T07:32:43.231Z,46.80
2018-02-21T07:33:43.186Z,46.90
2018-02-21T07:34:43.214Z,48.00
2018-02-21T07:35:43.202Z,47.90
2018-02-21T07:36:43.236Z,47.10
2018-02-21T07:37:43.186Z,46.90
2018-02-21T07:38:43.253Z,47.90
2018-02-21T07:39:43.212Z,46.40
2018-02-21T07:40:43.261Z,45.90
2018-02-21T07:41:43.232Z,47.80
2018-02-21T07:42:44.238Z,48.70
2018-02-21T07:43:43.191Z,48.60
2018-02-21T07:44:43.224Z,48.90
2018-02-21T07:45:43.190Z,48.00
2018-02-21T07:46:43.264Z,48.40
2018-02-21T07:47:43.198Z,48.30
2018-02-21T07:48:44.274Z,46.80
2018-02-21T07:49:43.204Z,46.30
2018-02-21T07:50:44.284Z,45.70
2018-02-21T07:51:43.231Z,47.20
2018-02-21T07:52:43.277Z,46.90
2018-02-21T07:53:43.199Z,45.30
2018-02-21T07:54:43.299Z,47.30
2018-02-21T07:55:43.216Z,45.90
2018-02-21T07:56:43.205Z,46.50
2018-02-21T07:57:43.199Z,45.10
2018-02-21T07:58:43.213Z,46.80
2018-02-21T07:59:43.202Z,46.90
2018-02-21T08:00:43.223Z,46.90
2018-02-21T08:01:43.298Z,47.50
2018-02-21T08:02:43.366Z,47.70
2018-02-21T08:03:43.229Z,47.30
2018-02-21T08:04:43.243Z,47.40
2018-02-21T08:05:43.275Z,48.30
2018-02-21T08:06:43.209Z,45.30
2018-02-21T08:07:43.231Z,44.80
2018-02-21T08:08:43.243Z,44.30
2018-02-21T08:09:44.353Z,45.80
2018-02-21T08:10:43.199Z,44.70
2018-02-21T08:11:43.251Z,46.20
2018-02-21T08:12:43.215Z,45.40
2018-02-21T08:13:43.226Z,45.10
2018-02-21T08:14:43.232Z,44.10
2018-02-21T08:15:43.234Z,45.10
2018-02-21T08:16:43.225Z,45.10
2018-02-21T08:17:43.262Z,44.60
2018-02-21T08:18:43.233Z,45.60
2018-02-21T08:19:43.255Z,46.10
2018-02-21T08:20:43.249Z,45.70
2018-02-21T08:21:43.222Z,45.90
2018-02-21T08:22:43.204Z,44.30
2018-02-21T08:23:43.205Z,47.10
2018-02-21T08:24:43.239Z,47.30
2018-02-21T08:25:43.254Z,45.90
2018-02-21T08:26:43.211Z,47.60
2018-02-21T08:27:43.272Z,45.60
2018-02-21T08:28:43.252Z,47.10
2018-02-21T08:29:43.238Z,45.90
2018-02-21T08:30:43.212Z,47.10
2018-02-21T08:31:43.239Z,44.60
2018-02-21T08:32:43.208Z,44.80
2018-02-21T08:33:43.253Z,45.10
2018-02-21T08:34:43.250Z,45.20
2018-02-21T08:35:43.263Z,45.40
2018-02-21T08:36:43.216Z,45.40
2018-02-21T08:37:43.228Z,44.80
2018-02-21T08:38:43.231Z,46.10
2018-02-21T08:39:43.254Z,46.60
2018-02-21T08:40:43.208Z,45.10
2018-02-21T08:41:43.215Z,45.60
2018-02-21T08:42:43.215Z,45.80
2018-02-21T08:43:43.208Z,45.70
2018-02-21T08:44:43.217Z,44.60
2018-02-21T08:45:43.211Z,43.70
2018-02-21T08:46:43.302Z,44.70
2018-02-21T08:47:43.218Z,44.20
2018-02-21T08:48:43.315Z,42.60
2018-02-21T08:49:43.361Z,44.90
2018-02-21T08:50:44.273Z,43.70
2018-02-21T08:51:43.219Z,44.50
2018-02-21T08:52:43.248Z,45.60
2018-02-21T08:53:43.233Z,43.60
2018-02-21T08:54:43.258Z,42.80
2018-02-21T08:55:43.213Z,42.90
2018-02-21T08:56:43.271Z,43.10
2018-02-21T08:57:43.222Z,43.70
2018-02-21T08:58:43.279Z,42.50
2018-02-21T08:59:43.227Z,42.20
2018-02-21T09:00:43.295Z,42.80
2018-02-21T09:01:43.223Z,41.70
2018-02-21T09:02:43.348Z,41.40
2018-02-21T09:03:43.222Z,42.40
2018-02-21T09:04:43.348Z,42.80
2018-02-21T09:05:43.228Z,41.10
2018-02-21T09:06:43.336Z,40.00
2018-02-21T09:07:43.231Z,40.60
2018-02-21T09:08:43.249Z,40.50
2018-02-21T09:09:43.226Z,39.20
2018-02-21T09:10:43.232Z,41.20
2018-02-21T09:11:43.252Z,40.30
2018-02-21T09:12:43.376Z,39.90
2018-02-21T09:13:43.232Z,40.40
2018-02-21T09:14:43.293Z,39.70
2018-02-21T09:15:43.245Z,39.90
2018-02-21T09:16:43.349Z,39.80
2018-02-21T09:17:43.236Z,40.70
2018-02-21T09:18:43.323Z,39.90
2018-02-21T09:19:43.236Z,38.30
2018-02-21T09:20:43.351Z,41.70
2018-02-21T09:21:43.248Z,39.80
2018-02-21T09:22:44.264Z,40.10
2018-02-21T09:23:43.240Z,37.20
2018-02-21T09:24:43.262Z,38.10
2018-02-21T09:25:43.246Z,38.80
2018-02-21T09:26:43.253Z,38.90
2018-02-21T09:27:44.309Z,39.00
2018-02-21T09:28:43.248Z,38.80
2018-02-21T09:29:43.301Z,38.90
2018-02-21T09:30:43.247Z,36.90
2018-02-21T09:31:43.312Z,36.70
2018-02-21T09:32:43.270Z,34.90
2018-02-21T09:33:43.337Z,34.60
2018-02-21T09:34:43.251Z,33.90
2018-02-21T09:35:43.335Z,33.70
2018-02-21T09:36:43.259Z,35.00
2018-02-21T09:37:43.350Z,34.20
2018-02-21T09:38:43.258Z,33.10
2018-02-21T09:39:43.364Z,31.80
2018-02-21T09:40:43.266Z,31.10
2018-02-21T09:41:43.380Z,33.50
2018-02-21T09:42:43.259Z,31.10
2018-02-21T09:43:43.289Z,31.80
2018-02-21T09:44:43.274Z,30.30
2018-02-21T09:45:43.303Z,30.20
2018-02-21T09:46:43.274Z,29.90
2018-02-21T09:47:43.325Z,30.30
2018-02-21T09:48:43.274Z,31.00
2018-02-21T09:49:43.280Z,31.40
2018-02-21T09:50:43.332Z,31.50
2018-02-21T09:51:43.273Z,30.60
2018-02-21T09:52:43.344Z,30.70
2018-02-21T09:53:43.280Z,30.90
2018-02-21T09:54:43.362Z,31.30
2018-02-21T09:55:43.279Z,32.30
2018-02-21T09:56:45.317Z,31.70
2018-02-21T09:57:43.290Z,31.90
2018-02-21T09:58:43.401Z,31.50
2018-02-21T09:59:43.285Z,30.90
2018-02-21T10:00:43.354Z,31.80
2018-02-21T10:01:43.287Z,35.20
2018-02-21T10:02:43.373Z,32.20
2018-02-21T10:03:43.356Z,31.30
2018-02-21T10:04:43.291Z,31.00
2018-02-21T10:05:44.353Z,30.70
2018-02-21T10:06:43.305Z,29.70
2018-02-21T10:07:44.325Z,29.10
2018-02-21T10:08:43.301Z,28.90
2018-02-21T10:09:43.294Z,28.50
2018-02-21T10:10:43.304Z,28.90
2018-02-21T10:11:43.297Z,29.60
2018-02-21T10:12:43.401Z,30.00
2018-02-21T10:13:43.328Z,30.40
2018-02-21T10:14:43.306Z,30.40
2018-02-21T10:15:43.308Z,29.20
2018-02-21T10:16:43.329Z,29.40
2018-02-21T10:17:43.350Z,28.90
2018-02-21T10:18:43.355Z,29.20
2018-02-21T10:19:43.312Z,27.90
2018-02-21T10:20:43.355Z,28.50
2018-02-21T10:21:43.315Z,27.20
2018-02-21T10:22:43.376Z,28.10
2018-02-21T10:23:43.333Z,28.50
2018-02-21T10:24:45.435Z,28.90
2018-02-21T10:25:43.326Z,29.10
2018-02-21T10:26:43.402Z,28.20
2018-02-21T10:27:43.326Z,29.60
2018-02-21T10:28:43.408Z,30.10
2018-02-21T10:29:43.337Z,29.20
2018-02-21T10:30:43.423Z,28.30
2018-02-21T10:31:43.335Z,27.40
2018-02-21T10:32:43.335Z,27.10
2018-02-21T10:33:43.339Z,27.30
2018-02-21T10:34:43.345Z,27.30
2018-02-21T10:35:43.340Z,29.20
2018-02-21T10:36:43.345Z,27.50
2018-02-21T10:37:43.353Z,28.50
2018-02-21T10:38:43.346Z,28.70
2018-02-21T10:39:43.346Z,26.20
2018-02-21T10:40:43.350Z,27.10
2018-02-21T10:41:43.369Z,25.60
2018-02-21T10:42:43.435Z,26.50
2018-02-21T10:43:43.367Z,27.20
2018-02-21T10:44:43.362Z,27.90
2018-02-21T10:45:43.459Z,28.10
2018-02-21T10:46:43.362Z,28.60
2018-02-21T10:47:43.418Z,27.60
2018-02-21T10:48:43.369Z,27.60
2018-02-21T10:49:44.459Z,27.80
2018-02-21T10:50:43.378Z,28.00
2018-02-21T10:51:43.447Z,27.30
2018-02-21T10:52:43.375Z,25.60
2018-02-21T10:53:43.407Z,27.60
2018-02-21T10:54:43.378Z,27.80
2018-02-21T10:55:43.375Z,27.20
2018-02-21T10:56:43.383Z,27.40
2018-02-21T10:57:43.385Z,26.70
2018-02-21T10:58:43.382Z,25.70
2018-02-21T10:59:43.388Z,25.80
2018-02-21T11:00:43.387Z,27.30
2018-02-21T11:01:43.396Z,27.00
2018-02-21T11:02:43.488Z,27.40
2018-02-21T11:03:43.405Z,26.40
2018-02-21T11:04:43.484Z,27.10
2018-02-21T11:05:43.410Z,26.60
2018-02-21T11:06:43.497Z,27.70
2018-02-21T11:07:43.404Z,27.90
2018-02-21T11:08:43.493Z,27.00
2018-02-21T11:09:43.410Z,26.10
2018-02-21T11:10:44.524Z,26.40
2018-02-21T11:11:43.413Z,26.30
2018-02-21T11:12:43.518Z,25.60
2018-02-21T11:13:43.430Z,26.50
2018-02-21T11:14:43.531Z,25.70
2018-02-21T11:15:43.425Z,26.10
2018-02-21T11:16:43.554Z,27.30
2018-02-21T11:17:43.428Z,25.70
2018-02-21T11:18:43.454Z,25.80
2018-02-21T11:19:43.449Z,26.80
2018-02-21T11:20:43.460Z,25.40
2018-02-21T11:21:43.439Z,25.50
2018-02-21T11:22:43.474Z,24.30
2018-02-21T11:23:43.494Z,23.60
2018-02-21T11:24:43.607Z,24.10
2018-02-21T11:25:43.451Z,24.10
2018-02-21T11:26:43.447Z,23.00
2018-02-21T11:27:43.517Z,23.70
2018-02-21T11:28:43.461Z,23.80
2018-02-21T11:29:43.538Z,23.70
2018-02-21T11:30:43.463Z,22.20
2018-02-21T11:31:44.572Z,22.50
2018-02-21T11:32:43.473Z,23.20
2018-02-21T11:33:44.586Z,24.30
2018-02-21T11:34:43.474Z,23.90
2018-02-21T11:35:43.570Z,24.10
2018-02-21T11:36:43.476Z,23.80
2018-02-21T11:37:43.581Z,24.50
2018-02-21T11:38:43.490Z,23.00
2018-02-21T11:39:44.522Z,23.50
2018-02-21T11:40:43.485Z,22.60
2018-02-21T11:41:43.509Z,23.80
2018-02-21T11:42:43.522Z,23.70
2018-02-21T11:43:43.520Z,23.80
2018-02-21T11:44:43.498Z,23.80
2018-02-21T11:45:43.535Z,24.50
2018-02-21T11:46:43.513Z,24.40
2018-02-21T11:47:43.507Z,23.70
2018-02-21T11:48:43.517Z,22.20
2018-02-21T11:49:43.512Z,24.10
2018-02-21T11:50:43.517Z,25.20
2018-02-21T11:51:43.521Z,24.40
2018-02-21T11:52:43.578Z,24.30
2018-02-21T11:53:43.524Z,23.30
2018-02-21T11:54:43.644Z,24.50
2018-02-21T11:55:43.526Z,25.00
2018-02-21T11:56:43.629Z,23.80
2018-02-21T11:57:43.557Z,24.30
2018-02-21T11:58:43.618Z,25.80
2018-02-21T11:59:43.551Z,24.30
2018-02-21T12:00:43.631Z,24.20
2018-02-21T12:01:43.545Z,24.30
2018-02-21T12:02:43.556Z,24.50
2018-02-21T12:03:43.656Z,25.00
2018-02-21T12:04:43.650Z,24.40
2018-02-21T12:05:43.665Z,23.90
2018-02-21T12:06:43.568Z,22.60
2018-02-21T12:07:43.683Z,24.00
2018-02-21T12:08:43.563Z,23.30
2018-02-21T12:09:43.660Z,23.90
2018-02-21T12:10:43.583Z,23.30
2018-02-21T12:11:43.602Z,23.60
2018-02-21T12:12:43.584Z,22.50
2018-02-21T12:13:43.694Z,22.70
2018-02-21T12:14:43.592Z,23.30
2018-02-21T12:15:43.710Z,23.20
2018-02-21T12:16:43.600Z,23.20
2018-02-21T12:17:43.736Z,24.20
2018-02-21T12:18:43.618Z,23.60
2018-02-21T12:19:43.953Z,23.30
2018-02-21T12:20:43.609Z,23.70
2018-02-21T12:21:43.658Z,23.30
2018-02-21T12:22:43.613Z,22.60
2018-02-21T12:23:43.662Z,22.60
2018-02-21T12:24:43.616Z,23.00
2018-02-21T12:25:43.677Z,23.30
2018-02-21T12:26:43.680Z,23.10
2018-02-21T12:27:43.627Z,22.00
2018-02-21T12:28:43.698Z,23.40
2018-02-21T12:29:43.641Z,23.10
2018-02-21T12:30:44.735Z,23.50
2018-02-21T12:31:43.652Z,22.90
2018-02-21T12:32:43.726Z,22.70
2018-02-21T12:33:43.663Z,23.00
2018-02-21T12:34:43.738Z,22.60
2018-02-21T12:35:43.661Z,22.60
2018-02-21T12:36:43.660Z,22.50
2018-02-21T12:37:43.758Z,23.70
2018-02-21T12:38:43.709Z,22.30
2018-02-21T12:39:43.672Z,23.20
2018-02-21T12:40:43.673Z,22.50
2018-02-21T12:41:43.694Z,22.70
2018-02-21T12:42:43.790Z,23.60
2018-02-21T12:43:43.685Z,22.30
2018-02-21T12:44:44.721Z,23.70
2018-02-21T12:45:43.699Z,22.90
2018-02-21T12:46:44.743Z,23.30
2018-02-21T12:47:43.755Z,22.80
2018-02-21T12:48:43.884Z,22.50
2018-02-21T12:49:43.706Z,22.70
2018-02-21T12:50:43.740Z,23.40
2018-02-21T12:51:43.714Z,23.10
2018-02-21T12:52:43.752Z,22.50